Terminal Aerodrome Forecast
Issued by NWS

Home | Current Version | Previous Version | Text Only | Print | Product List | Glossary On
Versions: 1 2 3 4 5 6 7 8 9 10 11 12 13 14 15 16 17 18 19 20 21 22 23 24 25 26 27 28 29 30 31 32 33 34 35 36
000
FTUS44 KHGX 161137
TAFCXO
TAF
KCXO 161137Z 1612/1712 00000KT P6SM OVC250
     FM161600 09004KT P6SM VCSH BKN035 BKN250
     FM162000 09007KT P6SM VCTS BKN040CB BKN250
      TEMPO 1620/1624 TSRA
     FM170000 VRB03KT P6SM VCSH BKN035 BKN250
     FM170200 VRB03KT P6SM FEW030 BKN250=

USA.gov is the U.S. government's official web portal to all federal, state and local government web resources and services.